sensor_id;sensor_type;location;lat;lon;timestamp;pressure;altitude;pressure_sealevel;temperature;humidity
64668;BME280;51077;42.716;23.344;2023-08-07T00:00:32;94830.97;;;20.95;54.58
64668;BME280;51077;42.716;23.344;2023-08-07T00:02:58;94831.69;;;20.95;54.90
64668;BME280;51077;42.716;23.344;2023-08-07T00:05:23;94821.13;;;20.94;54.44
64668;BME280;51077;42.716;23.344;2023-08-07T00:07:48;94822.31;;;20.91;54.69
64668;BME280;51077;42.716;23.344;2023-08-07T00:10:14;94827.16;;;20.90;54.79
64668;BME280;51077;42.716;23.344;2023-08-07T00:12:39;94820.56;;;20.86;54.94
64668;BME280;51077;42.716;23.344;2023-08-07T00:15:05;94834.38;;;20.83;54.89
64668;BME280;51077;42.716;23.344;2023-08-07T00:17:31;94830.72;;;20.81;54.94
64668;BME280;51077;42.716;23.344;2023-08-07T00:19:56;94834.69;;;20.78;55.15
64668;BME280;51077;42.716;23.344;2023-08-07T00:22:22;94830.28;;;20.75;54.97
64668;BME280;51077;42.716;23.344;2023-08-07T00:24:47;94834.84;;;20.70;54.99
64668;BME280;51077;42.716;23.344;2023-08-07T00:27:13;94833.94;;;20.68;55.51
64668;BME280;51077;42.716;23.344;2023-08-07T00:29:39;94833.69;;;20.64;55.41
64668;BME280;51077;42.716;23.344;2023-08-07T00:32:05;94822.25;;;20.60;55.40
64668;BME280;51077;42.716;23.344;2023-08-07T00:34:30;94826.22;;;20.56;55.61
64668;BME280;51077;42.716;23.344;2023-08-07T00:36:56;94834.28;;;20.52;55.88
64668;BME280;51077;42.716;23.344;2023-08-07T00:39:22;94832.66;;;20.49;55.85
64668;BME280;51077;42.716;23.344;2023-08-07T00:41:47;94823.41;;;20.47;56.15
64668;BME280;51077;42.716;23.344;2023-08-07T00:44:13;94823.25;;;20.45;55.90
64668;BME280;51077;42.716;23.344;2023-08-07T00:46:38;94825.91;;;20.43;56.08
64668;BME280;51077;42.716;23.344;2023-08-07T00:49:05;94834.84;;;20.41;55.98
64668;BME280;51077;42.716;23.344;2023-08-07T00:51:31;94829.16;;;20.39;56.14
64668;BME280;51077;42.716;23.344;2023-08-07T00:53:56;94829.75;;;20.38;56.21
64668;BME280;51077;42.716;23.344;2023-08-07T00:56:22;94835.88;;;20.36;56.31
64668;BME280;51077;42.716;23.344;2023-08-07T00:58:49;94841.47;;;20.36;56.37
64668;BME280;51077;42.716;23.344;2023-08-07T01:01:15;94843.38;;;20.33;56.36
64668;BME280;51077;42.716;23.344;2023-08-07T01:03:40;94855.09;;;20.32;56.58
64668;BME280;51077;42.716;23.344;2023-08-07T01:06:06;94859.22;;;20.31;56.25
64668;BME280;51077;42.716;23.344;2023-08-07T01:08:32;94864.06;;;20.30;56.31
64668;BME280;51077;42.716;23.344;2023-08-07T01:11:18;94863.91;;;20.28;56.44
64668;BME280;51077;42.716;23.344;2023-08-07T01:16:37;94869.34;;;20.26;56.53
64668;BME280;51077;42.716;23.344;2023-08-07T01:19:08;94860.25;;;20.26;56.42
64668;BME280;51077;42.716;23.344;2023-08-07T01:21:43;94868.91;;;20.20;56.64
64668;BME280;51077;42.716;23.344;2023-08-07T01:24:09;94865.97;;;20.18;56.74
64668;BME280;51077;42.716;23.344;2023-08-07T01:26:36;94879.91;;;20.18;56.54
64668;BME280;51077;42.716;23.344;2023-08-07T01:29:09;94876.25;;;20.16;56.68
64668;BME280;51077;42.716;23.344;2023-08-07T01:31:38;94876.69;;;20.12;56.71
64668;BME280;51077;42.716;23.344;2023-08-07T01:34:05;94865.97;;;20.08;56.91
64668;BME280;51077;42.716;23.344;2023-08-07T01:36:34;94867.13;;;20.05;57.05
64668;BME280;51077;42.716;23.344;2023-08-07T01:39:01;94868.28;;;20.02;57.08
64668;BME280;51077;42.716;23.344;2023-08-07T01:41:27;94858.47;;;20.01;57.25
64668;BME280;51077;42.716;23.344;2023-08-07T01:43:54;94854.97;;;20.01;57.13
64668;BME280;51077;42.716;23.344;2023-08-07T01:46:20;94859.66;;;19.98;57.23
64668;BME280;51077;42.716;23.344;2023-08-07T01:48:46;94861.69;;;19.98;57.34
64668;BME280;51077;42.716;23.344;2023-08-07T01:51:11;94863.59;;;19.95;57.35
64668;BME280;51077;42.716;23.344;2023-08-07T01:53:37;94867.72;;;19.94;57.26
64668;BME280;51077;42.716;23.344;2023-08-07T01:56:02;94865.50;;;19.93;57.25
64668;BME280;51077;42.716;23.344;2023-08-07T01:58:30;94869.59;;;19.92;57.41
64668;BME280;51077;42.716;23.344;2023-08-07T02:00:55;94863.31;;;19.91;57.43
64668;BME280;51077;42.716;23.344;2023-08-07T02:03:20;94865.94;;;19.89;57.44
64668;BME280;51077;42.716;23.344;2023-08-07T02:05:46;94870.03;;;19.88;57.49
64668;BME280;51077;42.716;23.344;2023-08-07T02:08:12;94871.34;;;19.87;57.56
64668;BME280;51077;42.716;23.344;2023-08-07T02:10:37;94885.28;;;19.87;57.51
64668;BME280;51077;42.716;23.344;2023-08-07T02:13:03;94879.41;;;19.83;57.70
64668;BME280;51077;42.716;23.344;2023-08-07T02:15:28;94890.56;;;19.83;57.93
64668;BME280;51077;42.716;23.344;2023-08-07T02:17:53;94895.41;;;19.82;57.63
64668;BME280;51077;42.716;23.344;2023-08-07T02:20:19;94894.50;;;19.80;57.64
64668;BME280;51077;42.716;23.344;2023-08-07T02:22:44;94889.66;;;19.80;57.59
64668;BME280;51077;42.716;23.344;2023-08-07T02:25:10;94901.38;;;19.79;57.59
64668;BME280;51077;42.716;23.344;2023-08-07T02:27:35;94896.41;;;19.77;57.63
64668;BME280;51077;42.716;23.344;2023-08-07T02:30:00;94904.19;;;19.79;57.63
64668;BME280;51077;42.716;23.344;2023-08-07T02:32:28;94901.97;;;19.77;57.64
64668;BME280;51077;42.716;23.344;2023-08-07T02:34:53;94894.19;;;19.76;57.62
64668;BME280;51077;42.716;23.344;2023-08-07T02:37:19;94902.41;;;19.74;57.70
64668;BME280;51077;42.716;23.344;2023-08-07T02:39:46;94905.78;;;19.72;57.85
64668;BME280;51077;42.716;23.344;2023-08-07T02:42:11;94903.00;;;19.72;57.74
64668;BME280;51077;42.716;23.344;2023-08-07T02:44:37;94907.06;;;19.71;57.89
64668;BME280;51077;42.716;23.344;2023-08-07T02:47:02;94902.09;;;19.70;57.80
64668;BME280;51077;42.716;23.344;2023-08-07T02:49:28;94910.47;;;19.70;57.89
64668;BME280;51077;42.716;23.344;2023-08-07T02:51:53;94908.25;;;19.68;57.88
64668;BME280;51077;42.716;23.344;2023-08-07T02:54:18;94911.59;;;19.67;57.94
64668;BME280;51077;42.716;23.344;2023-08-07T02:56:44;94911.47;;;19.65;57.90
64668;BME280;51077;42.716;23.344;2023-08-07T02:59:09;94906.31;;;19.61;57.83
64668;BME280;51077;42.716;23.344;2023-08-07T03:01:34;94906.72;;;19.57;58.02
64668;BME280;51077;42.716;23.344;2023-08-07T03:04:00;94914.94;;;19.55;57.96
64668;BME280;51077;42.716;23.344;2023-08-07T03:06:25;94927.34;;;19.54;57.98
64668;BME280;51077;42.716;23.344;2023-08-07T03:08:50;94917.41;;;19.51;58.03
64668;BME280;51077;42.716;23.344;2023-08-07T03:11:16;94924.44;;;19.52;57.96
64668;BME280;51077;42.716;23.344;2023-08-07T03:13:41;94920.31;;;19.53;58.01
64668;BME280;51077;42.716;23.344;2023-08-07T03:16:09;94921.06;;;19.54;58.00
64668;BME280;51077;42.716;23.344;2023-08-07T03:18:35;94933.09;;;19.56;57.95
64668;BME280;51077;42.716;23.344;2023-08-07T03:21:01;94938.06;;;19.58;57.98
64668;BME280;51077;42.716;23.344;2023-08-07T03:23:28;94929.72;;;19.58;57.85
64668;BME280;51077;42.716;23.344;2023-08-07T03:28:28;94933.81;;;19.57;56.88
64668;BME280;51077;42.716;23.344;2023-08-07T03:30:54;94945.13;;;19.59;57.26
64668;BME280;51077;42.716;23.344;2023-08-07T03:33:19;94953.66;;;19.61;57.33
64668;BME280;51077;42.716;23.344;2023-08-07T03:35:44;94953.06;;;19.63;57.48
64668;BME280;51077;42.716;23.344;2023-08-07T03:38:11;94959.34;;;19.63;57.51
64668;BME280;51077;42.716;23.344;2023-08-07T03:40:36;94961.59;;;19.65;57.35
64668;BME280;51077;42.716;23.344;2023-08-07T03:43:02;94972.88;;;19.67;57.62
64668;BME280;51077;42.716;23.344;2023-08-07T03:45:27;94975.50;;;19.65;57.37
64668;BME280;51077;42.716;23.344;2023-08-07T03:47:52;94976.25;;;19.65;57.57
64668;BME280;51077;42.716;23.344;2023-08-07T03:50:18;94975.50;;;19.65;57.62
64668;BME280;51077;42.716;23.344;2023-08-07T03:52:43;94974.91;;;19.66;57.67
64668;BME280;51077;42.716;23.344;2023-08-07T03:55:09;94977.88;;;19.68;57.68
64668;BME280;51077;42.716;23.344;2023-08-07T03:57:34;94979.91;;;19.68;57.60
64668;BME280;51077;42.716;23.344;2023-08-07T03:59:59;94977.28;;;19.70;57.64
64668;BME280;51077;42.716;23.344;2023-08-07T04:02:25;94972.44;;;19.70;57.62
64668;BME280;51077;42.716;23.344;2023-08-07T04:04:51;94973.91;;;19.71;57.53
64668;BME280;51077;42.716;23.344;2023-08-07T04:07:16;94976.13;;;19.73;57.63
64668;BME280;51077;42.716;23.344;2023-08-07T04:09:41;94974.94;;;19.76;57.42
64668;BME280;51077;42.716;23.344;2023-08-07T04:12:07;94989.91;;;19.80;57.38
64668;BME280;51077;42.716;23.344;2023-08-07T04:14:32;94988.94;;;19.86;57.31
64668;BME280;51077;42.716;23.344;2023-08-07T04:16:58;94994.03;;;19.89;57.19
64668;BME280;51077;42.716;23.344;2023-08-07T04:19:25;94984.13;;;19.96;57.08
64668;BME280;51077;42.716;23.344;2023-08-07T04:21:51;94996.28;;;20.00;56.99
64668;BME280;51077;42.716;23.344;2023-08-07T04:24:16;94994.72;;;20.07;56.85
64668;BME280;51077;42.716;23.344;2023-08-07T04:26:41;94998.09;;;20.15;56.79
64668;BME280;51077;42.716;23.344;2023-08-07T04:29:07;95003.53;;;20.23;56.44
64668;BME280;51077;42.716;23.344;2023-08-07T04:31:32;95003.25;;;20.28;56.34
64668;BME280;51077;42.716;23.344;2023-08-07T04:33:58;95005.19;;;20.36;55.97
64668;BME280;51077;42.716;23.344;2023-08-07T04:36:23;95006.94;;;20.41;55.86
64668;BME280;51077;42.716;23.344;2023-08-07T04:38:49;95014.47;;;20.48;55.59
64668;BME280;51077;42.716;23.344;2023-08-07T04:41:15;95014.34;;;20.55;55.47
64668;BME280;51077;42.716;23.344;2023-08-07T04:43:41;95012.16;;;20.64;55.10
64668;BME280;51077;42.716;23.344;2023-08-07T04:46:10;95015.50;;;20.72;54.77
64668;BME280;51077;42.716;23.344;2023-08-07T04:48:37;95010.41;;;20.78;54.50
64668;BME280;51077;42.716;23.344;2023-08-07T04:51:02;95017.88;;;20.85;54.24
64668;BME280;51077;42.716;23.344;2023-08-07T04:53:28;95017.16;;;20.94;54.08
64668;BME280;51077;42.716;23.344;2023-08-07T04:55:53;95010.25;;;21.05;53.89
64668;BME280;51077;42.716;23.344;2023-08-07T04:58:18;95009.66;;;21.16;53.21
64668;BME280;51077;42.716;23.344;2023-08-07T05:00:44;95009.91;;;21.30;52.94
64668;BME280;51077;42.716;23.344;2023-08-07T05:03:09;95014.47;;;21.45;52.89
64668;BME280;51077;42.716;23.344;2023-08-07T05:05:35;95004.88;;;21.57;52.38
64668;BME280;51077;42.716;23.344;2023-08-07T05:08:00;95010.75;;;21.62;52.12
64668;BME280;51077;42.716;23.344;2023-08-07T05:10:26;95003.97;;;21.65;51.74
64668;BME280;51077;42.716;23.344;2023-08-07T05:12:51;95007.50;;;21.65;51.76
64668;BME280;51077;42.716;23.344;2023-08-07T05:15:23;95011.16;;;21.68;51.49
64668;BME280;51077;42.716;23.344;2023-08-07T05:17:48;95002.34;;;21.71;51.72
64668;BME280;51077;42.716;23.344;2023-08-07T05:20:14;94994.97;;;21.76;51.24
64668;BME280;51077;42.716;23.344;2023-08-07T05:22:39;94998.03;;;21.80;51.27
64668;BME280;51077;42.716;23.344;2023-08-07T05:25:04;94992.88;;;21.86;50.85
64668;BME280;51077;42.716;23.344;2023-08-07T05:27:30;94990.50;;;21.92;50.56
64668;BME280;51077;42.716;23.344;2023-08-07T05:29:55;94993.69;;;21.98;50.47
64668;BME280;51077;42.716;23.344;2023-08-07T05:32:20;95001.03;;;22.03;50.03
64668;BME280;51077;42.716;23.344;2023-08-07T05:34:46;95001.44;;;22.09;50.21
64668;BME280;51077;42.716;23.344;2023-08-07T05:37:11;94999.06;;;22.16;49.79
64668;BME280;51077;42.716;23.344;2023-08-07T05:39:37;95002.41;;;22.24;49.54
64668;BME280;51077;42.716;23.344;2023-08-07T05:42:02;95000.03;;;22.30;49.49
64668;BME280;51077;42.716;23.344;2023-08-07T05:44:29;95014.41;;;22.36;49.28
64668;BME280;51077;42.716;23.344;2023-08-07T05:46:54;95012.78;;;22.43;49.13
64668;BME280;51077;42.716;23.344;2023-08-07T05:49:20;95009.75;;;22.50;48.82
64668;BME280;51077;42.716;23.344;2023-08-07T05:51:46;95009.56;;;22.58;48.86
64668;BME280;51077;42.716;23.344;2023-08-07T05:54:11;95002.06;;;22.61;48.26
64668;BME280;51077;42.716;23.344;2023-08-07T05:56:37;95003.16;;;22.67;47.76
64668;BME280;51077;42.716;23.344;2023-08-07T05:59:03;95009.75;;;22.72;47.85
64668;BME280;51077;42.716;23.344;2023-08-07T06:01:28;95007.38;;;22.78;48.03
64668;BME280;51077;42.716;23.344;2023-08-07T06:03:59;95009.81;;;22.83;47.85
64668;BME280;51077;42.716;23.344;2023-08-07T06:06:25;94998.28;;;22.89;47.91
64668;BME280;51077;42.716;23.344;2023-08-07T06:08:53;95001.38;;;22.93;47.76
64668;BME280;51077;42.716;23.344;2023-08-07T06:11:18;95002.38;;;22.98;47.40
64668;BME280;51077;42.716;23.344;2023-08-07T06:13:43;94999.72;;;23.00;46.93
64668;BME280;51077;42.716;23.344;2023-08-07T06:16:09;95010.44;;;23.03;46.57
64668;BME280;51077;42.716;23.344;2023-08-07T06:18:36;94999.50;;;23.07;46.37
64668;BME280;51077;42.716;23.344;2023-08-07T06:21:02;94998.53;;;23.15;46.45
64668;BME280;51077;42.716;23.344;2023-08-07T06:23:28;94993.47;;;23.23;46.16
64668;BME280;51077;42.716;23.344;2023-08-07T06:25:54;94993.84;;;23.29;46.21
64668;BME280;51077;42.716;23.344;2023-08-07T06:28:19;94983.88;;;23.38;45.78
64668;BME280;51077;42.716;23.344;2023-08-07T06:30:46;94986.59;;;23.47;45.62
64668;BME280;51077;42.716;23.344;2023-08-07T06:33:11;94992.81;;;23.57;45.47
64668;BME280;51077;42.716;23.344;2023-08-07T06:35:40;94986.41;;;23.67;45.18
64668;BME280;51077;42.716;23.344;2023-08-07T06:38:05;94991.16;;;23.76;45.15
64668;BME280;51077;42.716;23.344;2023-08-07T06:40:31;94991.66;;;23.84;44.60
64668;BME280;51077;42.716;23.344;2023-08-07T06:42:57;94995.81;;;23.95;44.58
64668;BME280;51077;42.716;23.344;2023-08-07T06:45:22;95004.09;;;24.04;44.01
64668;BME280;51077;42.716;23.344;2023-08-07T06:47:47;95005.44;;;24.15;43.77
64668;BME280;51077;42.716;23.344;2023-08-07T06:50:13;95004.56;;;24.24;43.37
64668;BME280;51077;42.716;23.344;2023-08-07T06:52:39;95001.91;;;24.38;43.02
64668;BME280;51077;42.716;23.344;2023-08-07T06:55:05;95008.34;;;24.52;42.71
64668;BME280;51077;42.716;23.344;2023-08-07T06:57:30;95011.88;;;24.65;42.12
64668;BME280;51077;42.716;23.344;2023-08-07T06:59:56;95011.22;;;24.78;41.57
64668;BME280;51077;42.716;23.344;2023-08-07T07:02:21;95006.41;;;24.92;41.01
64668;BME280;51077;42.716;23.344;2023-08-07T07:04:46;94998.78;;;25.06;40.36
64668;BME280;51077;42.716;23.344;2023-08-07T07:07:12;94999.00;;;25.22;40.27
64668;BME280;51077;42.716;23.344;2023-08-07T07:09:37;95004.78;;;25.38;40.07
64668;BME280;51077;42.716;23.344;2023-08-07T07:12:03;95003.47;;;25.53;39.95
64668;BME280;51077;42.716;23.344;2023-08-07T07:14:28;95004.25;;;25.67;39.30
64668;BME280;51077;42.716;23.344;2023-08-07T07:16:54;94993.19;;;25.83;38.75
64668;BME280;51077;42.716;23.344;2023-08-07T07:19:19;94999.53;;;25.97;38.06
64668;BME280;51077;42.716;23.344;2023-08-07T07:21:44;94994.56;;;26.10;37.80
64668;BME280;51077;42.716;23.344;2023-08-07T07:24:10;95000.91;;;26.24;37.82
64668;BME280;51077;42.716;23.344;2023-08-07T07:26:35;94996.13;;;26.40;37.76
64668;BME280;51077;42.716;23.344;2023-08-07T07:29:01;94989.28;;;26.57;37.37
64668;BME280;51077;42.716;23.344;2023-08-07T07:31:27;94991.63;;;26.76;37.26
64668;BME280;51077;42.716;23.344;2023-08-07T07:33:52;94989.59;;;26.93;36.26
64668;BME280;51077;42.716;23.344;2023-08-07T07:36:18;94984.28;;;27.13;36.31
64668;BME280;51077;42.716;23.344;2023-08-07T07:38:45;94983.03;;;27.31;35.64
64668;BME280;51077;42.716;23.344;2023-08-07T07:41:11;94978.06;;;27.46;35.51
64668;BME280;51077;42.716;23.344;2023-08-07T07:43:37;94985.00;;;27.59;35.27
64668;BME280;51077;42.716;23.344;2023-08-07T07:46:03;94990.78;;;27.76;35.06
64668;BME280;51077;42.716;23.344;2023-08-07T07:48:28;94993.31;;;27.86;34.79
64668;BME280;51077;42.716;23.344;2023-08-07T07:51:03;94995.50;;;28.03;33.98
64668;BME280;51077;42.716;23.344;2023-08-07T07:53:29;94987.16;;;28.21;33.43
64668;BME280;51077;42.716;23.344;2023-08-07T07:55:56;94993.59;;;28.40;33.01
64668;BME280;51077;42.716;23.344;2023-08-07T07:58:21;94994.22;;;28.54;31.85
64668;BME280;51077;42.716;23.344;2023-08-07T08:00:47;94994.06;;;28.68;31.59
64668;BME280;51077;42.716;23.344;2023-08-07T08:03:12;94984.13;;;28.83;31.47
64668;BME280;51077;42.716;23.344;2023-08-07T08:05:39;94982.53;;;28.95;30.92
64668;BME280;51077;42.716;23.344;2023-08-07T08:08:06;94974.81;;;29.14;30.71
64668;BME280;51077;42.716;23.344;2023-08-07T08:10:32;94984.56;;;29.28;30.34
64668;BME280;51077;42.716;23.344;2023-08-07T08:12:58;94984.56;;;29.46;29.82
64668;BME280;51077;42.716;23.344;2023-08-07T08:15:23;94987.97;;;29.61;29.79
64668;BME280;51077;42.716;23.344;2023-08-07T08:17:49;94982.84;;;29.75;29.41
64668;BME280;51077;42.716;23.344;2023-08-07T08:20:14;94977.88;;;29.93;29.11
64668;BME280;51077;42.716;23.344;2023-08-07T08:22:44;94983.75;;;29.99;28.80
64668;BME280;51077;42.716;23.344;2023-08-07T08:25:10;94975.06;;;30.13;28.42
64668;BME280;51077;42.716;23.344;2023-08-07T08:27:37;94970.81;;;30.32;28.13
64668;BME280;51077;42.716;23.344;2023-08-07T08:30:03;94968.03;;;30.34;27.84
64668;BME280;51077;42.716;23.344;2023-08-07T08:32:28;94969.91;;;30.47;28.06
64668;BME280;51077;42.716;23.344;2023-08-07T08:34:53;94961.91;;;30.62;27.52
64668;BME280;51077;42.716;23.344;2023-08-07T08:37:19;94966.69;;;30.77;26.95
64668;BME280;51077;42.716;23.344;2023-08-07T08:39:44;94958.16;;;30.97;26.58
64668;BME280;51077;42.716;23.344;2023-08-07T08:42:11;94956.34;;;31.08;26.94
64668;BME280;51077;42.716;23.344;2023-08-07T08:44:39;94950.69;;;31.29;26.81
64668;BME280;51077;42.716;23.344;2023-08-07T08:47:06;94953.00;;;31.35;26.27
64668;BME280;51077;42.716;23.344;2023-08-07T08:49:45;94948.53;;;31.52;26.63
64668;BME280;51077;42.716;23.344;2023-08-07T08:52:12;94949.50;;;31.61;26.21
64668;BME280;51077;42.716;23.344;2023-08-07T08:54:39;94950.97;;;31.62;26.08
64668;BME280;51077;42.716;23.344;2023-08-07T08:57:06;94955.03;;;31.78;25.85
64668;BME280;51077;42.716;23.344;2023-08-07T08:59:32;94944.84;;;31.93;26.28
64668;BME280;51077;42.716;23.344;2023-08-07T09:01:59;94940.38;;;32.12;25.98
64668;BME280;51077;42.716;23.344;2023-08-07T09:04:24;94942.97;;;32.28;25.53
64668;BME280;51077;42.716;23.344;2023-08-07T09:06:49;94948.06;;;32.34;25.42
64668;BME280;51077;42.716;23.344;2023-08-07T09:09:16;94943.66;;;32.52;24.90
64668;BME280;51077;42.716;23.344;2023-08-07T09:11:43;94939.72;;;32.66;25.45
64668;BME280;51077;42.716;23.344;2023-08-07T09:14:15;94938.56;;;32.77;24.78
64668;BME280;51077;42.716;23.344;2023-08-07T09:16:41;94941.88;;;32.95;24.86
64668;BME280;51077;42.716;23.344;2023-08-07T09:19:06;94944.19;;;33.01;25.10
64668;BME280;51077;42.716;23.344;2023-08-07T09:21:31;94935.69;;;33.03;24.52
64668;BME280;51077;42.716;23.344;2023-08-07T09:23:57;94935.09;;;33.09;24.42
64668;BME280;51077;42.716;23.344;2023-08-07T09:26:23;94918.19;;;33.15;24.68
64668;BME280;51077;42.716;23.344;2023-08-07T09:28:52;94920.22;;;33.40;24.04
64668;BME280;51077;42.716;23.344;2023-08-07T09:31:19;94918.28;;;33.49;24.17
64668;BME280;51077;42.716;23.344;2023-08-07T09:33:47;94912.13;;;33.61;23.44
64668;BME280;51077;42.716;23.344;2023-08-07T09:36:13;94915.97;;;33.73;23.78
64668;BME280;51077;42.716;23.344;2023-08-07T09:38:38;94918.34;;;33.85;23.88
64668;BME280;51077;42.716;23.344;2023-08-07T09:41:04;94915.22;;;34.05;23.93
64668;BME280;51077;42.716;23.344;2023-08-07T09:43:34;94907.59;;;34.16;23.13
64668;BME280;51077;42.716;23.344;2023-08-07T09:46:06;94906.38;;;34.27;23.43
64668;BME280;51077;42.716;23.344;2023-08-07T09:48:32;94912.47;;;34.47;23.01
64668;BME280;51077;42.716;23.344;2023-08-07T09:51:03;94913.97;;;34.50;22.93
64668;BME280;51077;42.716;23.344;2023-08-07T09:53:30;94912.16;;;34.69;22.84
64668;BME280;51077;42.716;23.344;2023-08-07T09:55:56;94914.78;;;34.97;22.41
64668;BME280;51077;42.716;23.344;2023-08-07T09:58:22;94908.94;;;34.89;22.15
64668;BME280;51077;42.716;23.344;2023-08-07T10:00:48;94910.06;;;35.14;22.61
64668;BME280;51077;42.716;23.344;2023-08-07T10:03:14;94914.56;;;35.30;22.29
64668;BME280;51077;42.716;23.344;2023-08-07T10:05:42;94907.13;;;35.57;21.66
64668;BME280;51077;42.716;23.344;2023-08-07T10:08:08;94905.25;;;35.75;20.75
64668;BME280;51077;42.716;23.344;2023-08-07T10:10:36;94912.59;;;35.93;21.43
64668;BME280;51077;42.716;23.344;2023-08-07T10:13:02;94911.28;;;36.00;21.09
64668;BME280;51077;42.716;23.344;2023-08-07T10:15:29;94908.47;;;36.04;20.93
64668;BME280;51077;42.716;23.344;2023-08-07T10:17:54;94913.66;;;36.20;20.39
64668;BME280;51077;42.716;23.344;2023-08-07T10:20:20;94905.28;;;36.38;20.54
64668;BME280;51077;42.716;23.344;2023-08-07T10:22:48;94902.59;;;36.51;20.34
64668;BME280;51077;42.716;23.344;2023-08-07T10:25:15;94901.28;;;36.66;20.04
64668;BME280;51077;42.716;23.344;2023-08-07T10:27:44;94902.19;;;36.87;19.69
64668;BME280;51077;42.716;23.344;2023-08-07T10:30:11;94906.66;;;37.02;19.52
64668;BME280;51077;42.716;23.344;2023-08-07T10:32:40;94903.16;;;37.16;19.22
64668;BME280;51077;42.716;23.344;2023-08-07T10:35:07;94907.41;;;37.09;19.60
64668;BME280;51077;42.716;23.344;2023-08-07T10:40:07;94896.09;;;37.29;20.05
64668;BME280;51077;42.716;23.344;2023-08-07T10:43:00;94897.59;;;37.36;19.21
64668;BME280;51077;42.716;23.344;2023-08-07T10:45:36;94883.34;;;37.44;19.17
64668;BME280;51077;42.716;23.344;2023-08-07T10:48:02;94893.41;;;37.50;19.24
64668;BME280;51077;42.716;23.344;2023-08-07T10:50:29;94880.59;;;37.65;19.78
64668;BME280;51077;42.716;23.344;2023-08-07T10:52:55;94879.88;;;37.64;19.91
64668;BME280;51077;42.716;23.344;2023-08-07T10:55:20;94882.16;;;37.90;19.31
64668;BME280;51077;42.716;23.344;2023-08-07T10:57:47;94875.78;;;38.02;19.05
64668;BME280;51077;42.716;23.344;2023-08-07T11:00:12;94871.50;;;38.11;18.82
64668;BME280;51077;42.716;23.344;2023-08-07T11:02:41;94872.22;;;38.14;18.60
64668;BME280;51077;42.716;23.344;2023-08-07T11:05:08;94859.34;;;38.25;18.94
64668;BME280;51077;42.716;23.344;2023-08-07T11:07:33;94870.91;;;38.50;18.39
64668;BME280;51077;42.716;23.344;2023-08-07T11:09:59;94869.44;;;38.34;18.51
64668;BME280;51077;42.716;23.344;2023-08-07T11:12:28;94855.13;;;38.53;18.68
64668;BME280;51077;42.716;23.344;2023-08-07T11:14:55;94854.47;;;38.81;18.24
64668;BME280;51077;42.716;23.344;2023-08-07T11:17:27;94844.41;;;38.78;18.25
64668;BME280;51077;42.716;23.344;2023-08-07T11:19:55;94841.53;;;38.94;18.13
64668;BME280;51077;42.716;23.344;2023-08-07T11:22:20;94840.81;;;39.08;18.26
64668;BME280;51077;42.716;23.344;2023-08-07T11:24:46;94833.66;;;38.99;18.58
64668;BME280;51077;42.716;23.344;2023-08-07T11:27:12;94830.75;;;39.19;18.39
64668;BME280;51077;42.716;23.344;2023-08-07T11:29:37;94835.03;;;38.42;18.66
64668;BME280;51077;42.716;23.344;2023-08-07T11:32:03;94834.28;;;38.28;18.89
64668;BME280;51077;42.716;23.344;2023-08-07T11:34:29;94838.63;;;38.37;19.24
64668;BME280;51077;42.716;23.344;2023-08-07T11:36:54;94833.47;;;37.94;19.51
64668;BME280;51077;42.716;23.344;2023-08-07T11:39:20;94823.28;;;37.59;19.87
64668;BME280;51077;42.716;23.344;2023-08-07T11:41:46;94829.66;;;37.41;19.97
64668;BME280;51077;42.716;23.344;2023-08-07T11:44:12;94825.97;;;37.26;20.41
64668;BME280;51077;42.716;23.344;2023-08-07T11:46:38;94824.47;;;37.17;20.48
64668;BME280;51077;42.716;23.344;2023-08-07T11:49:04;94829.16;;;36.71;21.09
64668;BME280;51077;42.716;23.344;2023-08-07T11:51:29;94821.56;;;36.25;20.75
64668;BME280;51077;42.716;23.344;2023-08-07T11:53:55;94823.38;;;35.94;21.29
64668;BME280;51077;42.716;23.344;2023-08-07T11:56:22;94816.59;;;35.63;21.55
64668;BME280;51077;42.716;23.344;2023-08-07T11:58:48;94822.59;;;35.33;22.12
64668;BME280;51077;42.716;23.344;2023-08-07T12:01:19;94815.94;;;35.14;22.24
64668;BME280;51077;42.716;23.344;2023-08-07T12:04:09;94817.22;;;35.05;22.51
64668;BME280;51077;42.716;23.344;2023-08-07T12:06:35;94815.00;;;34.99;22.83
64668;BME280;51077;42.716;23.344;2023-08-07T12:09:02;94815.94;;;35.16;22.60
64668;BME280;51077;42.716;23.344;2023-08-07T12:11:30;94814.34;;;35.56;21.98
64668;BME280;51077;42.716;23.344;2023-08-07T12:13:56;94798.44;;;35.97;21.67
64668;BME280;51077;42.716;23.344;2023-08-07T12:16:21;94806.78;;;36.47;21.50
64668;BME280;51077;42.716;23.344;2023-08-07T12:18:49;94791.09;;;36.48;20.91
64668;BME280;51077;42.716;23.344;2023-08-07T12:21:22;94797.28;;;36.24;21.05
64668;BME280;51077;42.716;23.344;2023-08-07T12:23:50;94794.88;;;35.98;22.10
64668;BME280;51077;42.716;23.344;2023-08-07T12:26:16;94798.25;;;35.83;21.99
64668;BME280;51077;42.716;23.344;2023-08-07T12:28:42;94803.59;;;35.50;22.76
64668;BME280;51077;42.716;23.344;2023-08-07T12:31:08;94800.25;;;35.15;22.70
64668;BME280;51077;42.716;23.344;2023-08-07T12:33:33;94789.09;;;34.85;23.43
64668;BME280;51077;42.716;23.344;2023-08-07T12:36:00;94790.25;;;34.68;23.54
64668;BME280;51077;42.716;23.344;2023-08-07T12:38:26;94792.78;;;34.47;23.58
64668;BME280;51077;42.716;23.344;2023-08-07T12:40:52;94796.81;;;34.34;23.68
64668;BME280;51077;42.716;23.344;2023-08-07T12:43:17;94794.88;;;34.45;24.08
64668;BME280;51077;42.716;23.344;2023-08-07T12:45:42;94800.25;;;34.69;23.80
64668;BME280;51077;42.716;23.344;2023-08-07T12:48:08;94800.97;;;35.16;23.70
64668;BME280;51077;42.716;23.344;2023-08-07T12:50:34;94810.47;;;35.35;23.35
64668;BME280;51077;42.716;23.344;2023-08-07T12:52:59;94814.50;;;35.68;22.57